Portada
METAR-TAF:

METAR-TAF

Aeropuertos :

Varsovia, Polonia

Aeropuerto de Varsovia-Chopin

latitud: 52-10N, longitud: 020-58E, altitud: 106 m

Observación

El informe se hizo hace 17 minutos, a las 00:00 UTC
Viento 6 kt del este-noreste
Temperatura 12°C
Humedad 94%
Presión 1028 hPa
Visibilidad: 9000 m

METAR: EPWA 260000Z 07006KT 9000 NSC 12/11 Q1028 TEMPO 4000 BR

Hora: 02:17 (00:17 UTC)

Pronóstico

El informe se hizo hace 47 minutos, a las 23:30 UTC
Pronóstico válido del 26 a las 00 UTC al 26 a las 24 UTC
Viento 7 kt del este
Visibilidad 10 km o más
sin nubes por debajo de 1500 m y sin presencia de cumulonimbus.
Probabilidad 40%
del 26 a las 00 UTC al 26 a las 06 UTC
Visibilidad: 3000 m
neblina

TAF: EPWA 252330Z 2600/2624 08007KT CAVOK PROB40 2600/2606 3000 BR

Observaciones y pronósticos meteorológicos de más de 4000 aeropuertos (mensajes METAR y TAF).

Los puntos amarillos y rojos representan las estaciones disponibles.

Ponga el ratón en el punto deseado para ver el nombre de la estación.

Haga clic para ver las observaciones y los pronósticos meteorológicos.

Para cambiar el mapa : haga clic en los botones verdes con una cruz de color negro para hacer un zoom, en el botón verde con un guión para alejar o en las flechas verdes para mapas adyacentes.


METAR-TAF: